Time;durP1;ratioP1;P1;durP2;ratioP2;P2;SDS_P1;SDS_P2;PMS_P1;PMS_P2;Temp;Humidity;BMP_temperature;BMP_pressure;BME280_temperature;BME280_humidity;BME280_pressure;Samples;Min_cycle;Max_cycle;Signal;HPM_P1;HPM_P2
2021/12/10 00:00:31;;;;;;;5.47;2.80;;;2.90;99.90;;;;;;5065867;28;21342;-65
2021/12/10 00:02:59;;;;;;;6.53;2.70;;;2.90;99.90;;;;;;5060247;28;20448;-66
2021/12/10 00:05:34;;;;;;;5.73;2.37;;;2.80;99.90;;;;;;5047070;28;20948;-68
2021/12/10 00:08:04;;;;;;;6.13;2.53;;;2.70;99.90;;;;;;5047383;28;20844;-68
2021/12/10 00:10:33;;;;;;;6.57;2.90;;;2.70;99.90;;;;;;5047691;28;20469;-69
2021/12/10 00:13:02;;;;;;;6.63;2.70;;;2.60;99.90;;;;;;5047461;28;20447;-68
2021/12/10 00:15:31;;;;;;;6.87;3.47;;;2.60;99.90;;;;;;5047483;28;20996;-69
2021/12/10 00:18:01;;;;;;;7.17;2.70;;;2.60;99.90;;;;;;5046921;28;21019;-68
2021/12/10 00:20:31;;;;;;;5.47;2.70;;;2.60;99.90;;;;;;5047690;28;21020;-68
2021/12/10 00:23:02;;;;;;;7.40;3.10;;;2.70;99.90;;;;;;5047311;28;20461;-68
2021/12/10 00:25:38;;;;;;;5.43;2.83;;;2.70;99.90;;;;;;5047549;28;20780;-68
2021/12/10 00:28:14;;;;;;;6.20;3.27;;;2.70;99.90;;;;;;5047665;28;20520;-69
2021/12/10 00:30:57;;;;;;;4.53;2.53;;;2.60;99.90;;;;;;5047913;28;20495;-67
2021/12/10 00:33:26;;;;;;;7.87;3.60;;;2.50;99.90;;;;;;5057839;28;20443;-67
2021/12/10 00:35:54;;;;;;;5.97;3.40;;;2.50;99.90;;;;;;5067820;28;20438;-68
2021/12/10 00:38:22;;;;;;;6.40;2.90;;;2.40;99.90;;;;;;5067129;28;20443;-68
2021/12/10 00:40:51;;;;;;;5.10;2.40;;;2.40;99.90;;;;;;5067942;28;20570;-69
2021/12/10 00:43:18;;;;;;;5.67;2.93;;;2.30;99.90;;;;;;5048276;28;20452;-68
2021/12/10 00:45:45;;;;;;;4.50;2.43;;;2.20;99.90;;;;;;5047887;28;20441;-69
2021/12/10 00:48:12;;;;;;;5.83;2.97;;;2.20;99.90;;;;;;5047396;28;20482;-69
2021/12/10 00:50:47;;;;;;;9.10;3.30;;;2.10;99.90;;;;;;5047447;28;20467;-68
2021/12/10 00:53:14;;;;;;;6.13;2.87;;;2.10;99.90;;;;;;5049487;28;20450;-68
2021/12/10 00:55:41;;;;;;;7.70;3.37;;;2.00;99.90;;;;;;5049421;28;20441;-68
2021/12/10 00:58:11;;;;;;;5.23;2.80;;;2.10;99.90;;;;;;5049869;28;20433;-68
2021/12/10 01:00:40;;;;;;;7.70;2.90;;;2.00;99.90;;;;;;5048202;28;20470;-68
2021/12/10 01:03:11;;;;;;;5.07;2.80;;;2.10;99.90;;;;;;5047566;28;20533;-67
2021/12/10 01:05:40;;;;;;;4.00;2.10;;;2.00;99.90;;;;;;5047466;28;20469;-68
2021/12/10 01:08:08;;;;;;;6.80;2.53;;;1.80;99.90;;;;;;5046991;28;20477;-69
2021/12/10 01:10:38;;;;;;;6.70;2.83;;;1.80;99.90;;;;;;5046945;28;20552;-68
2021/12/10 01:13:10;;;;;;;8.83;3.60;;;1.70;99.90;;;;;;5046907;28;20458;-68
2021/12/10 01:15:55;;;;;;;4.77;2.90;;;1.70;99.90;;;;;;5046958;28;20437;-69
2021/12/10 01:23:59;;;;;;;6.43;3.00;;;1.50;99.90;;;;;;5050867;28;21009;-68
2021/12/10 01:26:54;;;;;;;5.17;2.33;;;1.40;99.90;;;;;;5050748;28;20471;-67
2021/12/10 01:29:28;;;;;;;5.73;2.53;;;1.40;99.90;;;;;;5069153;28;20486;-67
2021/12/10 01:31:57;;;;;;;4.63;2.77;;;1.30;99.90;;;;;;5070607;28;20432;-67
2021/12/10 01:34:24;;;;;;;6.20;2.50;;;1.30;99.90;;;;;;5070639;28;20453;-68
2021/12/10 01:36:52;;;;;;;6.83;2.63;;;1.20;99.90;;;;;;5070706;28;20438;-68
2021/12/10 01:39:22;;;;;;;5.27;2.73;;;1.20;99.90;;;;;;5070814;28;20440;-68
2021/12/10 01:41:58;;;;;;;7.07;2.77;;;1.20;99.90;;;;;;5070953;28;20471;-68
2021/12/10 01:44:30;;;;;;;6.20;2.57;;;1.30;99.90;;;;;;5070646;28;20439;-69
2021/12/10 01:47:02;;;;;;;7.50;3.40;;;1.20;99.90;;;;;;5070288;28;20431;-68
2021/12/10 01:49:29;;;;;;;5.77;2.97;;;1.20;99.90;;;;;;5070652;28;20485;-68
2021/12/10 01:51:57;;;;;;;6.80;3.30;;;1.20;99.90;;;;;;5070225;28;20959;-69
2021/12/10 01:54:28;;;;;;;5.20;2.70;;;1.20;99.90;;;;;;5070170;28;20966;-67
2021/12/10 01:56:57;;;;;;;6.43;2.60;;;1.20;99.90;;;;;;5069950;28;20445;-69
2021/12/10 01:59:26;;;;;;;7.30;2.50;;;1.20;99.90;;;;;;5070002;28;20435;-68
2021/12/10 02:01:56;;;;;;;7.90;3.30;;;1.20;99.90;;;;;;5070413;28;20468;-70
2021/12/10 02:04:27;;;;;;;4.57;2.30;;;1.20;99.90;;;;;;5070204;28;20842;-68
2021/12/10 02:06:54;;;;;;;7.07;2.60;;;1.20;99.90;;;;;;5069958;28;20440;-68
2021/12/10 02:09:22;;;;;;;4.87;3.80;;;1.20;99.90;;;;;;5070023;28;20472;-68
2021/12/10 02:11:49;;;;;;;5.03;2.03;;;1.10;99.90;;;;;;5069991;28;20477;-68
2021/12/10 02:14:16;;;;;;;6.97;2.40;;;1.10;99.90;;;;;;5070097;28;20455;-69
2021/12/10 02:16:44;;;;;;;10.77;3.10;;;1.10;99.90;;;;;;5069959;28;20431;-68
2021/12/10 02:19:13;;;;;;;4.90;2.40;;;1.00;99.90;;;;;;5070478;28;20438;-68
2021/12/10 02:21:41;;;;;;;7.00;2.70;;;1.00;99.90;;;;;;5069990;28;20486;-70
2021/12/10 02:24:10;;;;;;;6.20;3.00;;;1.00;99.90;;;;;;5070121;28;20558;-68
2021/12/10 02:26:41;;;;;;;7.80;3.20;;;0.90;99.90;;;;;;5069475;28;20448;-68
2021/12/10 02:29:09;;;;;;;4.00;2.27;;;0.90;99.90;;;;;;5069221;28;20479;-69
2021/12/10 02:31:36;;;;;;;6.13;3.10;;;1.00;99.90;;;;;;5069463;28;20985;-69
2021/12/10 02:34:04;;;;;;;5.23;2.30;;;1.00;99.90;;;;;;5069482;28;20440;-68
2021/12/10 02:36:31;;;;;;;4.80;2.90;;;1.10;99.90;;;;;;5069100;28;20505;-68
2021/12/10 02:39:00;;;;;;;5.80;2.00;;;1.10;99.90;;;;;;5069418;28;20453;-69
2021/12/10 02:41:30;;;;;;;4.70;2.10;;;1.10;99.90;;;;;;5069304;28;20456;-68
2021/12/10 02:43:57;;;;;;;3.63;2.10;;;1.10;99.90;;;;;;5069531;28;20428;-69
2021/12/10 02:46:24;;;;;;;5.10;2.20;;;1.00;99.90;;;;;;5068969;28;20997;-68
2021/12/10 02:48:51;;;;;;;4.73;2.40;;;1.00;99.90;;;;;;5069086;28;20840;-68
2021/12/10 02:51:18;;;;;;;6.10;2.70;;;1.00;99.90;;;;;;5068967;28;20456;-68
2021/12/10 02:53:46;;;;;;;6.90;2.30;;;0.90;99.90;;;;;;5068783;28;20447;-69
2021/12/10 02:56:18;;;;;;;4.03;2.40;;;0.80;99.90;;;;;;5069110;28;20443;-68
2021/12/10 02:58:48;;;;;;;5.30;3.17;;;0.80;99.90;;;;;;5069324;28;20438;-69
2021/12/10 03:01:20;;;;;;;5.77;2.90;;;0.70;99.90;;;;;;5069058;28;20475;-69
2021/12/10 03:03:47;;;;;;;3.80;2.20;;;0.60;99.90;;;;;;5068942;28;20445;-69
2021/12/10 03:06:18;;;;;;;6.87;3.90;;;0.60;99.90;;;;;;5068783;28;20444;-70
2021/12/10 03:08:49;;;;;;;7.03;3.30;;;0.70;99.90;;;;;;5069197;28;20481;-68
2021/12/10 03:11:20;;;;;;;7.57;3.40;;;0.70;99.90;;;;;;5068891;28;21033;-68
2021/12/10 03:13:47;;;;;;;5.40;3.63;;;0.80;99.90;;;;;;5069150;28;20446;-69
2021/12/10 03:16:14;;;;;;;7.63;3.60;;;0.80;99.90;;;;;;5068788;28;20444;-69
2021/12/10 03:18:42;;;;;;;10.93;4.07;;;0.80;99.90;;;;;;5068545;28;21023;-69
2021/12/10 03:21:10;;;;;;;6.77;4.10;;;0.70;99.90;;;;;;5068443;28;21072;-72
2021/12/10 03:23:42;;;;;;;6.50;3.80;;;0.80;99.90;;;;;;5068901;28;20472;-68
2021/12/10 03:26:09;;;;;;;7.40;3.87;;;0.90;99.90;;;;;;5068620;28;20934;-68
2021/12/10 03:28:38;;;;;;;6.60;4.03;;;0.90;99.90;;;;;;5068627;28;20473;-69
2021/12/10 03:31:06;;;;;;;12.30;4.17;;;1.00;99.90;;;;;;5068131;28;20844;-67
2021/12/10 03:33:33;;;;;;;4.97;3.47;;;1.00;99.90;;;;;;5068765;28;20436;-68
2021/12/10 03:36:00;;;;;;;9.07;4.40;;;1.00;99.90;;;;;;5068452;28;20929;-68
2021/12/10 03:38:28;;;;;;;7.00;3.47;;;1.00;99.90;;;;;;5068482;28;20447;-66
2021/12/10 03:40:55;;;;;;;6.50;4.23;;;1.00;99.90;;;;;;5067792;28;20460;-68
2021/12/10 03:43:25;;;;;;;5.37;3.30;;;1.00;99.90;;;;;;5068241;28;20450;-68
2021/12/10 03:45:55;;;;;;;10.17;4.20;;;0.90;99.90;;;;;;5067968;28;20522;-68
2021/12/10 03:48:27;;;;;;;6.43;3.57;;;0.80;99.90;;;;;;5067875;28;20482;-69
2021/12/10 03:50:54;;;;;;;7.30;3.47;;;0.70;99.90;;;;;;5068051;28;20463;-69
2021/12/10 03:53:22;;;;;;;8.90;3.77;;;0.60;99.90;;;;;;5068027;28;20990;-68
2021/12/10 03:55:50;;;;;;;7.30;3.60;;;0.60;99.90;;;;;;5068084;28;20446;-68
2021/12/10 03:58:18;;;;;;;8.33;3.97;;;0.40;99.90;;;;;;5067992;28;20435;-66
2021/12/10 04:00:48;;;;;;;7.30;3.50;;;0.30;99.90;;;;;;5068000;28;20805;-67
2021/12/10 04:03:19;;;;;;;11.10;3.90;;;0.30;99.90;;;;;;5068384;28;20523;-68
2021/12/10 04:05:47;;;;;;;5.33;3.23;;;0.30;99.90;;;;;;5068363;28;20443;-67
2021/12/10 04:08:14;;;;;;;9.07;3.40;;;0.30;99.90;;;;;;5067458;28;20563;-67
2021/12/10 04:10:42;;;;;;;5.77;3.17;;;0.30;99.90;;;;;;5067573;28;20468;-68
2021/12/10 04:13:10;;;;;;;5.70;3.40;;;0.30;99.90;;;;;;5067871;28;20830;-67
2021/12/10 04:15:38;;;;;;;4.83;3.27;;;0.30;99.90;;;;;;5067954;28;20462;-68
2021/12/10 04:18:06;;;;;;;6.77;4.20;;;0.20;99.90;;;;;;5067287;28;20443;-66
2021/12/10 04:20:34;;;;;;;6.50;3.23;;;0.20;99.90;;;;;;5067589;28;20456;-68
2021/12/10 04:23:04;;;;;;;8.40;3.80;;;0.20;99.90;;;;;;5067386;28;20447;-68
2021/12/10 04:25:31;;;;;;;5.07;3.00;;;0.10;99.90;;;;;;5067790;28;20446;-69
2021/12/10 04:28:01;;;;;;;5.87;3.23;;;0.00;99.90;;;;;;5067574;28;20444;-68
2021/12/10 04:30:35;;;;;;;5.90;3.10;;;0.00;99.90;;;;;;5067509;28;20471;-68
2021/12/10 04:33:02;;;;;;;7.63;3.77;;;0.00;99.90;;;;;;5067944;28;20915;-68
2021/12/10 04:35:30;;;;;;;7.23;3.77;;;0.00;99.90;;;;;;5067727;28;21324;-69
2021/12/10 04:37:58;;;;;;;7.03;4.10;;;0.00;99.90;;;;;;5067504;28;20435;-69
2021/12/10 04:40:25;;;;;;;10.97;4.33;;;0.00;99.90;;;;;;5067667;28;20462;-69
2021/12/10 04:42:53;;;;;;;7.13;4.40;;;0.10;99.90;;;;;;5067832;28;20526;-68
2021/12/10 04:45:20;;;;;;;6.60;4.27;;;0.00;99.90;;;;;;5067950;28;20474;-69
2021/12/10 04:47:48;;;;;;;7.87;3.97;;;0.00;99.90;;;;;;5067591;28;20435;-67
2021/12/10 04:50:18;;;;;;;8.03;4.80;;;0.00;99.90;;;;;;5067472;28;20493;-67
2021/12/10 04:52:45;;;;;;;6.30;4.63;;;-0.10;99.90;;;;;;5072003;28;20439;-67
2021/12/10 04:55:15;;;;;;;5.90;3.63;;;-0.10;99.90;;;;;;5071972;28;20443;-69
2021/12/10 04:57:44;;;;;;;8.03;3.97;;;-0.20;99.90;;;;;;5072157;28;20534;-69
2021/12/10 05:00:15;;;;;;;6.63;4.30;;;-0.20;99.90;;;;;;5071430;28;20996;-68
2021/12/10 05:02:44;;;;;;;7.60;6.27;;;-0.30;99.90;;;;;;5071553;28;20475;-68
2021/12/10 05:05:12;;;;;;;6.70;4.30;;;-0.20;99.90;;;;;;5071691;28;20451;-67
2021/12/10 05:07:39;;;;;;;6.77;4.30;;;-0.20;99.90;;;;;;5071010;28;20448;-68
2021/12/10 05:10:11;;;;;;;7.30;4.97;;;-0.10;99.90;;;;;;5071294;28;20859;-68
2021/12/10 05:12:39;;;;;;;6.93;4.60;;;-0.10;99.90;;;;;;5071521;28;20944;-68
2021/12/10 05:15:09;;;;;;;10.20;4.90;;;-0.10;99.90;;;;;;5071543;28;20449;-67
2021/12/10 05:17:38;;;;;;;6.90;5.10;;;-0.20;99.90;;;;;;5071145;28;20444;-67
2021/12/10 05:20:10;;;;;;;8.60;5.60;;;-0.20;99.90;;;;;;5071425;28;20463;-67
2021/12/10 05:22:38;;;;;;;7.87;5.00;;;-0.20;99.90;;;;;;5071225;28;20455;-67
2021/12/10 05:25:05;;;;;;;10.20;6.00;;;-0.20;99.90;;;;;;5071424;28;20466;-69
2021/12/10 05:27:33;;;;;;;9.03;5.53;;;-0.20;99.90;;;;;;5071082;28;20432;-67
2021/12/10 05:30:01;;;;;;;10.87;6.53;;;-0.30;99.90;;;;;;5071620;28;21074;-68
2021/12/10 05:32:28;;;;;;;7.93;5.23;;;-0.40;99.90;;;;;;5072574;28;20442;-70
2021/12/10 05:34:55;;;;;;;7.00;5.20;;;-0.40;99.90;;;;;;5073600;28;20443;-68
2021/12/10 05:37:22;;;;;;;8.80;5.10;;;-0.40;99.90;;;;;;5071011;28;20443;-68
2021/12/10 05:39:50;;;;;;;9.63;5.27;;;-0.40;99.90;;;;;;5070253;28;20436;-69
2021/12/10 05:42:16;;;;;;;6.90;5.47;;;-0.40;99.90;;;;;;5070351;28;20891;-68
2021/12/10 05:44:43;;;;;;;10.93;5.97;;;-0.40;99.90;;;;;;5070192;28;21093;-68
2021/12/10 05:47:12;;;;;;;10.23;5.47;;;-0.40;99.90;;;;;;5070244;28;20440;-67
2021/12/10 05:49:39;;;;;;;9.73;5.33;;;-0.40;99.90;;;;;;5069922;28;21032;-69
2021/12/10 05:52:06;;;;;;;9.80;6.00;;;-0.40;99.90;;;;;;5070363;28;20447;-68
2021/12/10 05:54:33;;;;;;;8.37;5.00;;;-0.40;99.90;;;;;;5069947;28;21233;-69
2021/12/10 05:57:01;;;;;;;9.60;6.70;;;-0.50;99.90;;;;;;5069588;28;20449;-69
2021/12/10 05:59:28;;;;;;;7.40;4.67;;;-0.50;99.90;;;;;;5070044;28;20456;-69
2021/12/10 06:01:55;;;;;;;7.83;4.83;;;-0.50;99.90;;;;;;5070110;28;20467;-69
2021/12/10 06:04:27;;;;;;;7.93;4.60;;;-0.40;99.90;;;;;;5069198;28;20442;-69
2021/12/10 06:06:54;;;;;;;10.90;5.47;;;-0.40;99.90;;;;;;5063628;28;20482;-69
2021/12/10 06:09:21;;;;;;;10.30;5.90;;;-0.40;99.90;;;;;;5068272;28;20501;-68
2021/12/10 06:11:48;;;;;;;9.67;4.90;;;-0.50;99.90;;;;;;5068308;28;20464;-68
2021/12/10 06:14:15;;;;;;;7.53;5.20;;;-0.40;99.90;;;;;;5068868;28;20454;-69
2021/12/10 06:16:42;;;;;;;8.70;4.90;;;-0.40;99.90;;;;;;5069391;28;20454;-68
2021/12/10 06:19:09;;;;;;;8.07;5.77;;;-0.40;99.90;;;;;;5067692;28;20444;-67
2021/12/10 06:21:39;;;;;;;8.07;6.67;;;-0.50;99.90;;;;;;5067111;28;20467;-66
2021/12/10 06:24:07;;;;;;;8.83;5.90;;;-0.40;99.90;;;;;;5067794;28;20787;-67
2021/12/10 06:26:34;;;;;;;11.60;6.27;;;-0.40;99.90;;;;;;5067756;28;20435;-66
2021/12/10 06:29:01;;;;;;;9.23;5.73;;;-0.40;99.90;;;;;;5068429;28;20499;-68
2021/12/10 06:31:29;;;;;;;8.70;5.27;;;-0.40;99.90;;;;;;5069430;28;20464;-69
2021/12/10 06:33:57;;;;;;;9.73;5.37;;;-0.50;99.90;;;;;;5069413;28;20448;-68
2021/12/10 06:36:25;;;;;;;10.20;5.67;;;-0.50;99.90;;;;;;5068944;28;20455;-68
2021/12/10 06:38:54;;;;;;;11.50;7.20;;;-0.40;99.90;;;;;;5069440;28;21185;-67
2021/12/10 06:41:21;;;;;;;13.70;8.37;;;-0.40;99.90;;;;;;5070019;28;20478;-69
2021/12/10 06:43:49;;;;;;;16.10;8.43;;;-0.40;99.90;;;;;;5069497;28;20443;-67
2021/12/10 06:46:16;;;;;;;14.03;8.10;;;-0.30;99.90;;;;;;5069154;28;20940;-66
2021/12/10 06:48:44;;;;;;;12.57;7.63;;;-0.30;99.90;;;;;;5069215;28;20900;-65
2021/12/10 06:51:13;;;;;;;20.20;8.27;;;-0.30;99.90;;;;;;5068734;28;20472;-66
2021/12/10 06:53:43;;;;;;;14.30;8.07;;;-0.30;99.90;;;;;;5069243;28;20479;-66
2021/12/10 06:56:12;;;;;;;12.00;7.43;;;-0.30;99.90;;;;;;5068648;28;20527;-65
2021/12/10 06:58:40;;;;;;;14.50;8.00;;;-0.30;99.90;;;;;;5068707;28;20451;-67
2021/12/10 07:01:12;;;;;;;14.37;8.83;;;-0.20;99.90;;;;;;5068686;28;20472;-65
2021/12/10 07:03:40;;;;;;;18.23;9.90;;;-0.20;99.90;;;;;;5068752;28;20479;-66
2021/12/10 07:06:08;;;;;;;16.93;8.83;;;-0.20;99.90;;;;;;5068817;28;20447;-65
2021/12/10 07:08:37;;;;;;;12.07;8.10;;;-0.20;99.90;;;;;;5068734;28;20442;-65
2021/12/10 07:11:07;;;;;;;15.40;7.80;;;-0.20;99.90;;;;;;5068431;28;20485;-65
2021/12/10 07:13:37;;;;;;;15.77;8.30;;;-0.10;99.90;;;;;;5068509;28;20457;-65
2021/12/10 07:16:06;;;;;;;12.57;8.13;;;-0.10;99.90;;;;;;5067801;28;20532;-66
2021/12/10 07:18:34;;;;;;;19.43;8.40;;;-0.10;99.90;;;;;;5068332;28;20437;-66
2021/12/10 07:21:01;;;;;;;17.87;9.60;;;-0.10;99.90;;;;;;5068583;28;20571;-66
2021/12/10 07:23:28;;;;;;;12.83;8.90;;;-0.10;99.90;;;;;;5068466;28;20693;-65
2021/12/10 07:25:55;;;;;;;11.87;8.90;;;0.00;99.90;;;;;;5068576;28;20455;-65
2021/12/10 07:28:22;;;;;;;12.47;9.20;;;0.00;99.90;;;;;;5068139;28;20449;-66
2021/12/10 07:30:52;;;;;;;13.80;8.87;;;0.00;99.90;;;;;;5068120;28;20581;-65
2021/12/10 07:33:20;;;;;;;13.67;8.97;;;0.00;99.90;;;;;;5061393;28;20469;-64
2021/12/10 07:35:48;;;;;;;14.30;8.10;;;0.00;99.90;;;;;;5067138;28;20528;-64
2021/12/10 07:38:16;;;;;;;17.03;9.67;;;0.10;99.90;;;;;;5067155;28;20456;-64
2021/12/10 07:40:43;;;;;;;12.73;9.30;;;0.10;99.90;;;;;;5067912;28;20492;-65
2021/12/10 07:43:11;;;;;;;18.03;10.53;;;0.20;99.90;;;;;;5067473;28;20785;-66
2021/12/10 07:45:40;;;;;;;19.73;10.47;;;0.20;99.90;;;;;;5066815;28;21084;-66
2021/12/10 07:48:11;;;;;;;14.80;10.10;;;0.30;99.90;;;;;;5067117;28;20933;-65
2021/12/10 07:50:42;;;;;;;17.70;11.27;;;0.40;99.90;;;;;;5067083;28;20841;-66
2021/12/10 07:53:09;;;;;;;16.33;11.90;;;0.40;99.90;;;;;;5067297;28;20534;-66
2021/12/10 07:55:40;;;;;;;18.23;11.50;;;0.50;99.90;;;;;;5067654;28;20451;-65
2021/12/10 07:58:07;;;;;;;22.17;11.57;;;0.60;99.90;;;;;;5067345;28;20517;-65
2021/12/10 08:00:42;;;;;;;17.50;11.40;;;0.70;99.90;;;;;;5066999;28;20488;-66
2021/12/10 08:03:10;;;;;;;17.87;11.83;;;0.70;99.90;;;;;;5067559;28;20460;-65
2021/12/10 08:05:38;;;;;;;16.63;10.43;;;0.70;99.90;;;;;;5067157;28;20523;-67
2021/12/10 08:08:06;;;;;;;13.67;8.63;;;0.80;99.90;;;;;;5066440;28;20940;-66
2021/12/10 08:10:34;;;;;;;16.93;11.20;;;0.80;99.90;;;;;;5066380;28;20963;-64
2021/12/10 08:13:02;;;;;;;16.53;10.43;;;0.80;99.90;;;;;;5066884;28;20550;-68
2021/12/10 08:15:29;;;;;;;14.50;10.60;;;0.80;99.90;;;;;;5066708;28;20453;-65
2021/12/10 08:17:56;;;;;;;16.10;10.03;;;0.90;99.90;;;;;;5067288;28;20535;-65
2021/12/10 08:20:26;;;;;;;15.37;10.37;;;0.90;99.90;;;;;;5068243;28;20555;-66
2021/12/10 08:22:54;;;;;;;15.40;10.70;;;1.00;99.90;;;;;;5067567;28;20456;-67
2021/12/10 08:25:23;;;;;;;14.70;9.10;;;1.10;99.90;;;;;;5067491;28;20534;-66
2021/12/10 08:27:53;;;;;;;14.53;9.77;;;1.20;99.90;;;;;;5067408;28;20533;-66
2021/12/10 08:30:23;;;;;;;15.77;9.73;;;1.30;99.90;;;;;;5067559;28;20492;-66
2021/12/10 08:32:53;;;;;;;14.13;9.67;;;1.30;99.90;;;;;;5067741;28;20524;-66
2021/12/10 08:35:23;;;;;;;14.50;9.90;;;1.40;99.90;;;;;;5067803;28;20451;-67
2021/12/10 08:37:52;;;;;;;13.37;9.50;;;1.50;99.90;;;;;;5067072;28;21022;-66
2021/12/10 08:40:22;;;;;;;12.97;8.50;;;1.40;99.90;;;;;;5067408;28;20570;-66
2021/12/10 08:42:50;;;;;;;15.20;9.87;;;1.40;99.90;;;;;;5067469;28;20436;-65
2021/12/10 08:45:19;;;;;;;16.63;9.43;;;1.30;99.90;;;;;;5067583;28;20525;-65
2021/12/10 08:47:46;;;;;;;17.00;11.23;;;1.30;99.90;;;;;;5066850;28;20436;-65
2021/12/10 08:50:16;;;;;;;17.67;9.60;;;1.40;99.90;;;;;;5067063;28;20568;-66
2021/12/10 08:52:43;;;;;;;15.83;10.40;;;1.40;99.90;;;;;;5067040;28;20925;-67
2021/12/10 08:55:12;;;;;;;17.53;10.30;;;1.40;99.90;;;;;;5067376;28;20574;-65
2021/12/10 08:57:39;;;;;;;17.30;10.60;;;1.50;99.90;;;;;;5066509;28;20449;-66
2021/12/10 09:00:09;;;;;;;14.43;9.53;;;1.60;99.90;;;;;;5067109;28;20466;-66
2021/12/10 09:02:38;;;;;;;13.90;10.20;;;1.60;99.90;;;;;;5067073;28;21045;-66
2021/12/10 09:05:07;;;;;;;14.60;8.63;;;1.70;99.90;;;;;;5066862;28;20565;-65
2021/12/10 09:07:34;;;;;;;15.43;10.87;;;1.80;99.90;;;;;;5066849;28;20455;-67
2021/12/10 09:10:01;;;;;;;11.17;8.40;;;2.00;99.90;;;;;;5067067;28;20487;-66
2021/12/10 09:12:29;;;;;;;15.97;10.10;;;2.10;99.90;;;;;;5067306;28;20475;-66
2021/12/10 09:14:59;;;;;;;15.60;10.80;;;2.20;99.90;;;;;;5066940;28;21023;-65
2021/12/10 09:17:30;;;;;;;15.37;9.67;;;2.30;99.90;;;;;;5066887;28;20520;-66
2021/12/10 09:19:59;;;;;;;16.13;10.03;;;2.40;99.90;;;;;;5066909;28;20475;-65
2021/12/10 09:22:27;;;;;;;14.90;9.40;;;2.50;99.90;;;;;;5067278;28;20458;-66
2021/12/10 09:24:55;;;;;;;13.40;9.63;;;2.70;99.90;;;;;;5067251;28;20526;-66
2021/12/10 09:27:23;;;;;;;16.07;10.43;;;2.90;99.90;;;;;;5067088;28;20486;-65
2021/12/10 09:29:54;;;;;;;19.07;10.53;;;3.00;99.90;;;;;;5067995;28;20458;-67
2021/12/10 09:32:24;;;;;;;15.37;10.30;;;3.10;99.90;;;;;;5068081;28;20452;-66
2021/12/10 09:34:53;;;;;;;16.67;10.37;;;3.20;99.90;;;;;;5067479;28;20481;-67
2021/12/10 09:37:21;;;;;;;13.27;9.10;;;3.20;99.90;;;;;;5066842;28;20938;-67
2021/12/10 09:39:49;;;;;;;13.93;8.80;;;3.30;99.90;;;;;;5070729;28;20504;-67
2021/12/10 09:42:17;;;;;;;15.00;9.10;;;3.40;99.90;;;;;;5070962;28;20552;-66
2021/12/10 09:44:44;;;;;;;16.30;8.77;;;3.30;99.90;;;;;;5071106;28;20451;-66
2021/12/10 09:47:15;;;;;;;13.57;8.83;;;3.30;99.90;;;;;;5070366;28;20465;-66
2021/12/10 09:49:43;;;;;;;16.17;9.13;;;3.40;99.90;;;;;;5070791;28;20479;-65
2021/12/10 09:52:11;;;;;;;12.67;8.80;;;3.30;99.90;;;;;;5070647;28;21207;-66
2021/12/10 09:54:39;;;;;;;13.47;9.43;;;3.50;99.90;;;;;;5070454;28;20447;-66
2021/12/10 09:57:10;;;;;;;12.37;8.73;;;3.60;99.90;;;;;;5070929;28;20482;-66
2021/12/10 09:59:39;;;;;;;11.90;7.67;;;3.60;99.90;;;;;;5070828;28;20958;-65
2021/12/10 10:02:08;;;;;;;11.53;7.03;;;3.70;99.90;;;;;;5072609;28;20458;-65
2021/12/10 10:04:38;;;;;;;9.40;6.60;;;3.80;99.90;;;;;;5072664;28;20474;-65
2021/12/10 10:07:10;;;;;;;11.40;8.03;;;3.90;99.90;;;;;;5073402;28;20808;-65
2021/12/10 10:09:37;;;;;;;11.30;7.87;;;4.00;99.90;;;;;;5070059;28;20536;-65
2021/12/10 10:12:08;;;;;;;11.50;7.07;;;4.20;99.90;;;;;;5069692;28;20483;-66
2021/12/10 10:14:37;;;;;;;10.07;6.40;;;4.30;99.90;;;;;;5069862;28;20462;-65
2021/12/10 10:17:05;;;;;;;9.57;6.27;;;4.40;99.90;;;;;;5069349;28;21253;-65
2021/12/10 10:19:33;;;;;;;7.50;5.33;;;4.50;99.90;;;;;;5069773;28;20450;-65
2021/12/10 10:22:06;;;;;;;10.30;5.93;;;4.50;99.90;;;;;;5069879;28;20524;-66
2021/12/10 10:24:34;;;;;;;6.70;4.23;;;4.60;99.90;;;;;;5069721;28;20965;-66
2021/12/10 10:27:06;;;;;;;7.03;4.50;;;4.60;99.90;;;;;;5069478;28;20484;-66
2021/12/10 10:29:35;;;;;;;9.13;5.07;;;4.70;99.90;;;;;;5069716;28;20443;-63
2021/12/10 10:32:09;;;;;;;8.20;5.10;;;4.80;99.90;;;;;;5069358;28;20479;-65
2021/12/10 10:34:39;;;;;;;5.43;4.60;;;4.80;99.90;;;;;;5069691;28;20554;-65
2021/12/10 10:37:07;;;;;;;7.10;4.80;;;4.70;99.90;;;;;;5069305;28;20450;-66
2021/12/10 10:39:36;;;;;;;5.83;4.10;;;4.60;99.90;;;;;;5069440;28;20520;-65
2021/12/10 10:42:09;;;;;;;7.13;5.20;;;4.60;99.90;;;;;;5069420;28;20447;-65
2021/12/10 10:44:36;;;;;;;7.30;4.40;;;4.60;99.90;;;;;;5069387;28;20999;-65
2021/12/10 10:47:04;;;;;;;6.30;4.47;;;4.60;99.90;;;;;;5069389;28;20456;-64
2021/12/10 10:49:34;;;;;;;5.37;4.20;;;4.70;99.90;;;;;;5069380;28;20469;-65
2021/12/10 10:52:16;;;;;;;5.40;4.63;;;4.70;99.90;;;;;;5069269;28;20483;-64
2021/12/10 10:54:44;;;;;;;6.43;5.03;;;4.70;99.90;;;;;;5069323;28;20443;-64
2021/12/10 10:57:17;;;;;;;9.20;4.63;;;4.80;99.90;;;;;;5068815;28;20447;-65
2021/12/10 10:59:45;;;;;;;9.03;5.27;;;4.90;99.90;;;;;;5069249;28;20447;-66
2021/12/10 11:02:13;;;;;;;6.30;4.90;;;5.00;99.90;;;;;;5069282;28;20467;-65
2021/12/10 11:04:42;;;;;;;6.30;4.03;;;5.10;99.90;;;;;;5069180;28;20446;-65
2021/12/10 11:07:12;;;;;;;7.60;3.73;;;5.30;99.90;;;;;;5068673;28;20931;-66
2021/12/10 11:09:48;;;;;;;6.27;4.47;;;5.30;99.90;;;;;;5069106;28;20509;-63
2021/12/10 11:12:20;;;;;;;6.17;4.30;;;5.30;99.90;;;;;;5068796;28;20490;-65
2021/12/10 11:14:50;;;;;;;5.60;3.67;;;5.30;99.90;;;;;;5068667;28;21052;-65
2021/12/10 11:17:21;;;;;;;4.67;3.50;;;5.40;99.90;;;;;;5068379;28;20523;-65
2021/12/10 11:19:55;;;;;;;5.63;4.10;;;5.50;99.90;;;;;;5068708;28;20446;-65
2021/12/10 11:22:23;;;;;;;6.60;4.33;;;5.70;99.90;;;;;;5068506;28;20451;-66
2021/12/10 11:24:56;;;;;;;8.10;4.27;;;5.70;99.90;;;;;;5068845;28;20813;-65
2021/12/10 11:27:28;;;;;;;6.07;3.83;;;5.80;99.90;;;;;;5068117;28;21022;-66
2021/12/10 11:29:56;;;;;;;5.13;3.30;;;5.90;99.90;;;;;;5068356;28;20498;-66
2021/12/10 11:32:37;;;;;;;10.90;4.40;;;5.90;99.90;;;;;;5068198;28;21298;-65
2021/12/10 11:35:10;;;;;;;8.40;4.20;;;5.90;99.90;;;;;;5069051;28;20447;-66
2021/12/10 11:37:51;;;;;;;7.87;3.80;;;5.90;99.90;;;;;;5068581;28;20821;-67
2021/12/10 11:40:33;;;;;;;6.33;3.97;;;5.90;99.90;;;;;;5068282;28;20551;-65
2021/12/10 11:43:15;;;;;;;5.40;4.20;;;5.80;99.90;;;;;;5068182;28;20454;-64
2021/12/10 11:45:45;;;;;;;6.00;3.47;;;5.80;99.90;;;;;;5068007;28;20536;-63
2021/12/10 11:48:21;;;;;;;5.87;4.33;;;5.70;99.90;;;;;;5067763;28;20483;-64
2021/12/10 11:51:01;;;;;;;5.77;4.20;;;5.60;99.90;;;;;;5068071;28;20487;-64
2021/12/10 11:53:37;;;;;;;7.67;4.10;;;5.40;99.90;;;;;;5067960;28;20443;-67
2021/12/10 11:56:09;;;;;;;8.97;4.40;;;5.30;99.90;;;;;;5068053;28;20439;-65
2021/12/10 11:58:36;;;;;;;6.83;3.90;;;5.10;99.90;;;;;;5067948;28;20457;-65
2021/12/10 12:01:04;;;;;;;4.83;3.27;;;5.00;99.90;;;;;;5067752;28;20974;-66
2021/12/10 12:03:33;;;;;;;4.63;2.00;;;5.10;99.90;;;;;;5069404;28;20464;-65
2021/12/10 12:06:04;;;;;;;3.33;1.60;;;4.90;99.90;;;;;;5069812;28;20450;-67
2021/12/10 12:08:36;;;;;;;4.43;2.20;;;4.70;99.90;;;;;;5067698;28;21148;-65
2021/12/10 12:11:08;;;;;;;3.00;1.37;;;4.50;99.90;;;;;;5068038;28;20540;-67
2021/12/10 12:13:38;;;;;;;2.87;1.40;;;4.30;99.90;;;;;;5068376;28;20456;-67
2021/12/10 12:16:13;;;;;;;2.47;1.40;;;4.10;99.90;;;;;;5067845;28;20461;-64
2021/12/10 12:18:42;;;;;;;2.80;1.60;;;4.10;99.90;;;;;;5067922;28;20493;-66
2021/12/10 12:27:14;;;;;;;3.20;1.37;;;3.80;99.90;;;;;;5067493;28;20422;-65
2021/12/10 12:29:43;;;;;;;4.37;2.67;;;3.60;99.90;;;;;;5068098;28;20557;-65
2021/12/10 12:32:14;;;;;;;4.53;2.07;;;3.50;99.90;;;;;;5067846;28;20525;-66
2021/12/10 12:34:41;;;;;;;3.07;1.90;;;3.50;99.90;;;;;;5067706;28;20458;-66
2021/12/10 12:37:10;;;;;;;3.07;1.70;;;3.50;99.90;;;;;;5067837;28;20445;-66
2021/12/10 12:39:39;;;;;;;3.13;2.17;;;3.40;99.90;;;;;;5068057;28;20831;-65
2021/12/10 12:42:17;;;;;;;3.57;2.10;;;3.40;99.90;;;;;;5068409;28;21031;-65
2021/12/10 12:44:46;;;;;;;6.30;2.30;;;3.40;99.90;;;;;;5067582;28;20455;-65
2021/12/10 12:47:16;;;;;;;3.37;1.70;;;3.30;99.90;;;;;;5067560;28;20545;-66
2021/12/10 12:50:08;;;;;;;2.50;1.57;;;3.30;99.90;;;;;;5067109;28;20455;-66
2021/12/10 12:52:43;;;;;;;4.03;2.40;;;3.40;99.90;;;;;;5065613;28;20995;-65
2021/12/10 12:55:32;;;;;;;3.03;1.80;;;3.30;99.90;;;;;;5062365;28;20434;-64
2021/12/10 12:58:13;;;;;;;5.20;2.20;;;3.30;99.90;;;;;;5054784;28;20441;-66
2021/12/10 13:00:44;;;;;;;4.77;1.80;;;3.30;99.90;;;;;;5062641;28;20465;-65
2021/12/10 13:03:15;;;;;;;2.27;1.40;;;3.40;99.90;;;;;;5056575;28;20434;-65
2021/12/10 13:05:47;;;;;;;4.13;1.83;;;3.40;99.90;;;;;;5065555;28;20473;-65
2021/12/10 13:08:16;;;;;;;3.70;2.03;;;3.30;99.90;;;;;;5066770;28;20913;-66
2021/12/10 13:10:50;;;;;;;3.63;2.20;;;3.30;99.90;;;;;;5067331;28;20457;-65
2021/12/10 13:13:32;;;;;;;2.40;1.33;;;3.40;99.90;;;;;;5068498;28;20839;-66